Time;durP1;ratioP1;P1;durP2;ratioP2;P2;SDS_P1;SDS_P2;PMS_P1;PMS_P2;Temp;Humidity;BMP_temperature;BMP_pressure;BME280_temperature;BME280_humidity;BME280_pressure;Samples;Min_cycle;Max_cycle;Signal;HPM_P1;HPM_P2
2024/03/24 00:00:30;;;;;;;8.95;5.80;;;;;;;10.43;37.62;94333.88;5084373;28;20031;-79
2024/03/24 00:02:55;;;;;;;9.13;5.38;;;;;;;10.29;38.27;94313.19;5085281;28;20040;-80
2024/03/24 00:05:20;;;;;;;11.45;5.80;;;;;;;10.34;38.49;94321.63;5083862;28;20032;-79
2024/03/24 00:07:46;;;;;;;7.78;5.57;;;;;;;10.35;38.50;94331.38;5084848;28;20020;-79
2024/03/24 00:10:12;;;;;;;13.93;7.00;;;;;;;10.43;38.41;94331.13;5085371;28;20111;-79
2024/03/24 00:12:38;;;;;;;10.65;7.03;;;;;;;10.37;38.37;94325.44;5083830;28;20484;-79
2024/03/24 00:15:04;;;;;;;10.80;6.95;;;;;;;10.36;38.29;94335.66;5083803;28;20032;-80
2024/03/24 00:17:29;;;;;;;10.20;6.63;;;;;;;10.33;38.51;94344.81;5083794;28;20050;-79
2024/03/24 00:19:54;;;;;;;11.63;7.10;;;;;;;10.26;38.61;94336.06;5084577;28;20020;-79
2024/03/24 00:22:20;;;;;;;10.10;5.75;;;;;;;10.27;38.59;94310.91;5084939;28;20522;-79
2024/03/24 00:24:46;;;;;;;11.60;5.75;;;;;;;10.21;38.83;94312.69;5086708;28;20024;-78
2024/03/24 00:27:11;;;;;;;9.82;6.22;;;;;;;10.22;39.05;94313.44;5090229;28;20028;-79
2024/03/24 00:29:37;;;;;;;8.45;6.03;;;;;;;10.19;39.12;94311.56;5087235;28;20035;-78
2024/03/24 00:32:03;;;;;;;10.15;5.43;;;;;;;10.18;39.10;94305.31;5085154;28;20231;-79
2024/03/24 00:34:28;;;;;;;10.27;6.45;;;;;;;10.15;39.66;94308.19;5083857;28;20027;-78
2024/03/24 00:36:54;;;;;;;10.48;5.95;;;;;;;10.03;40.18;94301.56;5085377;28;20020;-80
2024/03/24 00:39:19;;;;;;;8.77;5.78;;;;;;;10.00;40.09;94295.00;5083522;28;20016;-80
2024/03/24 00:41:45;;;;;;;10.30;5.78;;;;;;;9.90;40.48;94278.91;5085860;28;20448;-80
2024/03/24 00:44:10;;;;;;;9.88;5.53;;;;;;;9.94;40.62;94285.81;5083182;28;20019;-79
2024/03/24 00:46:36;;;;;;;11.68;6.18;;;;;;;9.83;41.00;94283.44;5084304;28;20449;-79
2024/03/24 00:49:03;;;;;;;8.77;5.97;;;;;;;9.83;40.95;94277.97;5084447;28;20032;-79
2024/03/24 00:51:29;;;;;;;9.30;5.88;;;;;;;9.70;41.34;94277.28;5085109;28;20024;-79
2024/03/24 00:53:54;;;;;;;7.60;5.28;;;;;;;9.66;41.55;94278.59;5083527;28;20024;-80
2024/03/24 00:56:20;;;;;;;9.43;5.68;;;;;;;9.62;41.36;94278.72;5084645;28;20133;-79
2024/03/24 00:58:45;;;;;;;8.70;5.90;;;;;;;9.58;41.68;94273.38;5085367;28;20148;-80
2024/03/24 01:01:10;;;;;;;10.02;5.43;;;;;;;9.56;41.45;94275.78;5082369;28;20028;-79
2024/03/24 01:03:36;;;;;;;9.98;5.95;;;;;;;9.53;41.53;94271.19;5084230;28;20020;-79
2024/03/24 01:06:01;;;;;;;10.27;6.35;;;;;;;9.53;41.69;94273.94;5082915;28;20383;-78
2024/03/24 01:08:26;;;;;;;11.57;5.80;;;;;;;9.51;41.75;94259.13;5085225;28;20016;-79
2024/03/24 01:10:52;;;;;;;10.20;6.45;;;;;;;9.55;41.38;94262.50;5084576;28;20116;-78
2024/03/24 01:13:17;;;;;;;9.88;6.10;;;;;;;9.49;41.56;94253.31;5084184;28;20028;-80
2024/03/24 01:15:44;;;;;;;9.40;5.90;;;;;;;9.53;41.47;94260.22;5084586;28;20031;-79
2024/03/24 01:18:10;;;;;;;10.77;6.47;;;;;;;9.50;41.63;94260.34;5082677;28;20040;-79
2024/03/24 01:20:35;;;;;;;10.65;6.05;;;;;;;9.49;41.58;94256.06;5083680;28;20152;-77
2024/03/24 01:23:01;;;;;;;11.75;6.57;;;;;;;9.48;41.79;94246.31;5084378;28;20023;-80
2024/03/24 01:25:26;;;;;;;13.30;7.55;;;;;;;9.42;41.28;94237.13;5085099;28;20104;-80
2024/03/24 01:27:52;;;;;;;11.50;7.95;;;;;;;9.42;41.63;94242.63;5082913;28;20455;-79
2024/03/24 01:30:17;;;;;;;11.93;7.68;;;;;;;9.42;41.75;94229.66;5082869;28;20127;-79
2024/03/24 01:32:42;;;;;;;12.32;7.10;;;;;;;9.42;42.09;94253.59;5084646;28;20032;-79
2024/03/24 01:35:08;;;;;;;11.75;7.10;;;;;;;9.39;42.27;94244.25;5084307;28;20498;-78
2024/03/24 01:37:35;;;;;;;9.18;6.28;;;;;;;9.39;42.66;94238.75;5094730;28;20024;-79
2024/03/24 01:40:00;;;;;;;13.07;7.38;;;;;;;9.40;42.17;94243.03;5084432;28;20028;-79
2024/03/24 01:42:26;;;;;;;12.52;7.22;;;;;;;9.37;42.52;94240.44;5083606;28;20020;-80
2024/03/24 01:44:51;;;;;;;14.65;7.45;;;;;;;9.31;42.45;94232.78;5082741;28;20502;-80
2024/03/24 01:47:16;;;;;;;13.35;7.05;;;;;;;9.37;42.56;94234.94;5084438;28;20030;-80
2024/03/24 01:49:42;;;;;;;12.18;8.48;;;;;;;9.38;42.41;94233.72;5084248;28;20050;-79
2024/03/24 01:52:08;;;;;;;12.70;8.55;;;;;;;9.40;42.12;94232.06;5082661;28;20048;-79
2024/03/24 01:54:34;;;;;;;12.35;7.40;;;;;;;9.38;41.98;94226.28;5082829;28;20046;-78
2024/03/24 01:57:00;;;;;;;14.13;8.18;;;;;;;9.39;42.02;94227.78;5082633;28;20020;-78
2024/03/24 01:59:25;;;;;;;13.48;7.95;;;;;;;9.48;42.06;94233.34;5083237;28;20024;-79
2024/03/24 02:01:51;;;;;;;11.32;7.85;;;;;;;9.46;42.22;94235.78;5082584;28;20475;-78
2024/03/24 02:04:16;;;;;;;14.18;7.55;;;;;;;9.48;42.38;94224.38;5084713;28;20016;-79
2024/03/24 02:06:42;;;;;;;12.45;7.47;;;;;;;9.52;42.66;94230.50;5082627;28;20107;-80
2024/03/24 02:09:07;;;;;;;11.95;7.85;;;;;;;9.44;42.63;94223.72;5082466;28;20031;-78
2024/03/24 02:11:33;;;;;;;16.63;8.13;;;;;;;9.46;42.72;94224.03;5082406;28;20063;-79
2024/03/24 02:13:59;;;;;;;15.73;8.38;;;;;;;9.52;42.90;94225.00;5087599;28;20024;-79
2024/03/24 02:16:24;;;;;;;12.10;7.63;;;;;;;9.53;42.37;94221.81;5086436;28;20047;-77
2024/03/24 02:18:49;;;;;;;13.35;7.60;;;;;;;9.49;42.82;94214.91;5087597;28;20047;-79
2024/03/24 02:21:15;;;;;;;15.13;8.77;;;;;;;9.54;42.81;94215.09;5086881;28;20024;-79
2024/03/24 02:23:40;;;;;;;13.00;7.90;;;;;;;9.44;43.11;94215.50;5087338;28;20020;-79
2024/03/24 02:26:06;;;;;;;15.57;8.10;;;;;;;9.37;43.27;94202.78;5087815;28;20422;-79
2024/03/24 02:28:31;;;;;;;13.57;7.82;;;;;;;9.36;43.41;94211.47;5087555;28;20042;-78
2024/03/24 02:30:56;;;;;;;11.48;7.25;;;;;;;9.32;43.31;94217.84;5069230;28;20032;-78
2024/03/24 02:33:22;;;;;;;14.00;7.95;;;;;;;9.32;43.30;94215.09;5086021;28;20334;-79
2024/03/24 02:35:49;;;;;;;14.13;7.70;;;;;;;9.40;43.00;94221.09;5086114;28;20103;-79
2024/03/24 02:38:14;;;;;;;14.57;7.65;;;;;;;9.41;43.26;94219.13;5069625;28;20051;-80
2024/03/24 02:40:40;;;;;;;11.88;7.63;;;;;;;9.46;43.17;94211.09;5085623;28;20553;-79
2024/03/24 02:43:06;;;;;;;11.95;7.78;;;;;;;9.48;42.80;94216.13;5070712;28;20024;-79
2024/03/24 02:45:31;;;;;;;11.90;7.38;;;;;;;9.36;42.20;94208.75;5099760;28;20463;-80
2024/03/24 02:47:56;;;;;;;14.25;7.63;;;;;;;9.38;42.17;94207.06;5087540;28;20046;-80
2024/03/24 02:50:22;;;;;;;12.25;7.93;;;;;;;9.40;42.45;94212.09;5085477;28;20046;-79
2024/03/24 02:52:48;;;;;;;12.95;7.85;;;;;;;9.37;43.11;94213.00;5087380;28;20024;-79
2024/03/24 02:55:13;;;;;;;12.40;7.80;;;;;;;9.43;43.10;94219.44;5085886;28;20020;-79
2024/03/24 02:57:38;;;;;;;13.63;8.40;;;;;;;9.47;43.41;94207.13;5086746;28;20156;-77
2024/03/24 03:00:08;;;;;;;15.15;7.90;;;;;;;9.50;42.55;94219.94;5087935;28;20036;-77
2024/03/24 03:02:34;;;;;;;18.30;8.18;;;;;;;9.49;42.57;94218.41;5086801;28;20035;-79
2024/03/24 03:05:00;;;;;;;13.43;7.68;;;;;;;9.49;42.85;94221.16;5085922;28;20498;-79
2024/03/24 03:07:26;;;;;;;14.18;8.80;;;;;;;9.51;43.75;94231.69;5085102;28;20024;-77
2024/03/24 03:09:51;;;;;;;15.68;10.45;;;;;;;9.42;43.94;94226.16;5086786;28;20028;-78
2024/03/24 03:12:16;;;;;;;16.52;9.65;;;;;;;9.44;43.93;94221.75;5067771;28;20035;-79
2024/03/24 03:14:42;;;;;;;12.77;8.15;;;;;;;9.38;44.15;94209.81;5085194;28;20046;-78
2024/03/24 03:17:07;;;;;;;12.07;7.93;;;;;;;9.35;44.25;94204.44;5086946;28;20043;-79
2024/03/24 03:19:33;;;;;;;10.60;7.90;;;;;;;9.32;44.69;94214.34;5086349;28;20028;-79
2024/03/24 03:21:58;;;;;;;12.77;7.70;;;;;;;9.27;44.63;94206.69;5068966;28;20470;-78
2024/03/24 03:24:24;;;;;;;11.85;7.72;;;;;;;9.27;44.46;94206.69;5084072;28;20024;-78
2024/03/24 03:26:49;;;;;;;14.00;7.95;;;;;;;9.25;44.77;94203.63;5085090;28;20027;-80
2024/03/24 03:29:15;;;;;;;13.57;8.00;;;;;;;9.24;45.01;94197.38;5068306;28;20079;-79
2024/03/24 03:31:40;;;;;;;11.05;7.47;;;;;;;9.28;44.90;94194.50;5085053;28;20026;-79
2024/03/24 03:34:05;;;;;;;12.23;8.48;;;;;;;9.24;45.28;94199.34;5085297;28;20089;-77
2024/03/24 03:36:31;;;;;;;12.13;8.00;;;;;;;9.19;45.45;94192.47;5084473;28;20059;-80
2024/03/24 03:38:56;;;;;;;13.70;8.02;;;;;;;9.07;45.57;94182.31;5085621;28;20025;-79
2024/03/24 03:41:22;;;;;;;13.48;7.32;;;;;;;9.07;45.50;94178.81;5085625;28;20452;-79
2024/03/24 03:43:47;;;;;;;12.32;7.75;;;;;;;9.00;45.75;94186.06;5085419;28;20494;-80
2024/03/24 03:46:14;;;;;;;13.05;7.38;;;;;;;9.03;45.49;94193.41;5086022;28;20115;-80
2024/03/24 03:48:43;;;;;;;15.55;7.88;;;;;;;9.12;45.31;94197.41;5084866;28;20069;-78
2024/03/24 03:51:17;;;;;;;15.48;8.25;;;;;;;9.04;45.65;94205.13;5086300;28;20093;-78
2024/03/24 03:53:48;;;;;;;12.93;7.93;;;;;;;9.08;45.41;94207.75;5096125;28;20028;-78
2024/03/24 03:56:13;;;;;;;14.75;9.10;;;;;;;8.99;45.55;94200.22;5086821;28;20039;-78
2024/03/24 03:58:42;;;;;;;13.30;7.30;;;;;;;9.01;45.62;94189.59;5084181;28;20460;-78
2024/03/24 04:01:07;;;;;;;13.55;8.27;;;;;;;9.09;45.82;94187.34;5084986;28;20016;-78
2024/03/24 04:03:35;;;;;;;14.65;8.18;;;;;;;9.06;45.48;94197.25;5085625;28;20023;-77
2024/03/24 04:06:02;;;;;;;13.80;8.02;;;;;;;9.01;45.87;94195.81;5084449;28;20123;-78
2024/03/24 04:08:28;;;;;;;11.18;8.23;;;;;;;9.07;45.58;94198.00;5084266;28;20081;-78
2024/03/24 04:10:54;;;;;;;12.77;8.00;;;;;;;8.86;45.59;94200.25;5083823;28;20070;-79
2024/03/24 04:13:19;;;;;;;15.80;9.57;;;;;;;8.87;45.64;94196.31;5085833;28;20111;-78
2024/03/24 04:15:45;;;;;;;18.70;9.43;;;;;;;8.82;45.72;94187.88;5085118;28;20032;-78
2024/03/24 04:18:10;;;;;;;14.18;8.85;;;;;;;8.79;45.81;94208.72;5085603;28;20044;-80
2024/03/24 04:20:36;;;;;;;17.67;9.13;;;;;;;8.74;46.03;94209.28;5084112;28;20063;-78
2024/03/24 04:23:03;;;;;;;15.48;8.93;;;;;;;8.73;46.07;94211.25;5084067;28;20504;-78
2024/03/24 04:25:28;;;;;;;13.40;7.95;;;;;;;8.83;45.70;94214.06;5066724;28;20604;-77
2024/03/24 04:27:53;;;;;;;13.50;9.10;;;;;;;8.75;45.93;94208.84;5084002;28;20099;-78
2024/03/24 04:30:19;;;;;;;15.68;9.65;;;;;;;8.72;45.94;94204.25;5085464;28;20028;-78
2024/03/24 04:32:44;;;;;;;15.48;9.45;;;;;;;8.76;45.71;94213.09;5084943;28;20145;-79
2024/03/24 04:35:09;;;;;;;14.88;9.02;;;;;;;8.74;45.94;94212.03;5085557;28;20028;-79
2024/03/24 04:37:35;;;;;;;15.38;8.95;;;;;;;8.74;46.09;94212.03;5084245;28;20016;-79
2024/03/24 04:40:05;;;;;;;16.00;9.70;;;;;;;8.74;46.13;94217.50;5084066;28;20062;-79
2024/03/24 04:42:35;;;;;;;17.35;9.88;;;;;;;8.71;46.11;94224.63;5084128;28;20028;-79
2024/03/24 04:45:01;;;;;;;16.50;9.10;;;;;;;8.67;46.36;94229.47;5084183;28;20107;-79
2024/03/24 04:47:29;;;;;;;15.10;9.85;;;;;;;8.68;46.28;94231.00;5083962;28;20161;-79
2024/03/24 04:49:55;;;;;;;12.00;8.73;;;;;;;8.73;46.18;94235.16;5083530;28;20084;-79
2024/03/24 04:52:21;;;;;;;16.80;9.25;;;;;;;8.72;46.37;94237.13;5084362;28;20095;-80
2024/03/24 04:54:46;;;;;;;16.67;9.82;;;;;;;8.69;46.40;94238.00;5083099;28;20035;-79
2024/03/24 04:57:12;;;;;;;14.80;8.88;;;;;;;8.70;46.62;94236.78;5085143;28;20375;-79
2024/03/24 04:59:37;;;;;;;15.60;9.25;;;;;;;8.67;46.76;94232.22;5085459;28;20031;-80
2024/03/24 05:02:03;;;;;;;16.77;9.18;;;;;;;8.65;46.74;94229.13;5091921;28;20032;-80
2024/03/24 05:04:29;;;;;;;20.08;9.60;;;;;;;8.69;47.03;94238.00;5083596;28;20026;-78
2024/03/24 05:06:54;;;;;;;15.75;8.45;;;;;;;8.70;47.02;94230.53;5083098;28;20020;-78
2024/03/24 05:09:20;;;;;;;17.60;9.80;;;;;;;8.71;47.18;94221.13;5083737;28;20089;-78
2024/03/24 05:11:46;;;;;;;13.65;9.10;;;;;;;8.76;47.41;94224.06;5082530;28;20490;-81
2024/03/24 05:14:12;;;;;;;14.00;7.75;;;;;;;8.69;47.67;94213.34;5083703;28;20028;-79
2024/03/24 05:16:38;;;;;;;15.55;8.20;;;;;;;8.68;47.84;94213.78;5084083;28;20032;-79
2024/03/24 05:19:04;;;;;;;19.38;8.63;;;;;;;8.70;47.98;94222.31;5083119;28;20047;-79
2024/03/24 05:21:30;;;;;;;16.92;8.77;;;;;;;8.69;47.90;94215.31;5084318;28;20032;-79
2024/03/24 05:23:56;;;;;;;17.52;8.90;;;;;;;8.66;48.26;94227.16;5084406;28;20020;-79
2024/03/24 05:26:22;;;;;;;18.77;8.35;;;;;;;8.68;48.12;94213.78;5083448;28;20095;-80
2024/03/24 05:28:47;;;;;;;11.20;7.93;;;;;;;8.67;48.25;94210.28;5084183;28;20858;-79
2024/03/24 05:31:14;;;;;;;15.48;8.65;;;;;;;8.69;48.17;94227.03;5083664;28;20398;-78
2024/03/24 05:33:39;;;;;;;12.45;8.88;;;;;;;8.70;48.30;94225.81;5084568;28;20051;-78
2024/03/24 05:36:05;;;;;;;13.55;8.50;;;;;;;8.74;48.24;94226.47;5083156;28;20805;-78
2024/03/24 05:38:31;;;;;;;14.27;8.32;;;;;;;8.75;48.53;94225.28;5082529;28;20028;-79
2024/03/24 05:41:04;;;;;;;12.93;8.15;;;;;;;8.75;48.45;94228.00;5084403;28;20047;-79
2024/03/24 05:43:30;;;;;;;14.73;7.93;;;;;;;8.78;48.44;94226.38;5083133;28;20505;-78
2024/03/24 05:45:55;;;;;;;14.57;8.48;;;;;;;8.81;48.58;94235.69;5066089;28;20115;-78
2024/03/24 05:48:22;;;;;;;14.00;8.55;;;;;;;8.82;48.63;94232.50;5086177;28;20823;-79
2024/03/24 05:51:00;;;;;;;12.10;9.13;;;;;;;8.90;48.70;94233.03;5086795;28;20024;-79
2024/03/24 05:53:25;;;;;;;15.82;9.40;;;;;;;8.92;48.28;94223.16;5086678;28;20035;-79
2024/03/24 05:55:51;;;;;;;15.38;9.68;;;;;;;8.90;48.64;94219.34;5086659;28;20035;-78
2024/03/24 05:58:20;;;;;;;14.00;7.90;;;;;;;8.97;48.59;94219.84;5088334;28;20059;-78
2024/03/24 06:00:46;;;;;;;15.98;8.90;;;;;;;9.00;48.40;94218.19;5070116;28;20181;-77
2024/03/24 06:03:12;;;;;;;13.07;8.80;;;;;;;9.05;48.36;94221.13;5086433;28;20059;-79
2024/03/24 06:05:38;;;;;;;13.45;8.48;;;;;;;9.05;48.85;94225.84;5087432;28;20024;-78
2024/03/24 06:08:04;;;;;;;14.40;8.10;;;;;;;9.08;48.80;94221.47;5088374;28;20085;-78
2024/03/24 06:10:30;;;;;;;13.57;8.55;;;;;;;9.08;48.88;94219.50;5093407;28;20032;-80
2024/03/24 06:12:55;;;;;;;14.32;9.05;;;;;;;9.14;48.67;94220.44;5086067;28;20520;-78
2024/03/24 06:15:20;;;;;;;15.05;9.30;;;;;;;9.19;48.48;94219.88;5086160;28;20038;-78
2024/03/24 06:17:46;;;;;;;13.77;8.38;;;;;;;9.25;48.36;94211.84;5087909;28;20036;-78
2024/03/24 06:20:11;;;;;;;12.55;8.02;;;;;;;9.32;48.48;94215.09;5086223;28;20028;-78
2024/03/24 06:22:37;;;;;;;15.43;8.48;;;;;;;9.42;48.40;94220.66;5088207;28;20044;-77
2024/03/24 06:25:02;;;;;;;11.65;7.20;;;;;;;9.48;48.31;94221.63;5086085;28;20060;-77
2024/03/24 06:27:27;;;;;;;17.85;8.52;;;;;;;9.54;48.07;94217.84;5088214;28;20705;-78
2024/03/24 06:29:53;;;;;;;14.65;8.40;;;;;;;9.62;48.43;94204.63;5086021;28;20111;-79
2024/03/24 06:32:19;;;;;;;14.02;8.75;;;;;;;9.69;48.33;94206.34;5085953;28;20027;-79
2024/03/24 06:34:44;;;;;;;15.80;8.38;;;;;;;9.76;48.29;94215.09;5087621;28;20020;-79
2024/03/24 06:37:09;;;;;;;13.85;9.27;;;;;;;9.85;48.20;94217.88;5087595;28;20024;-79
2024/03/24 06:39:35;;;;;;;15.35;8.90;;;;;;;9.90;48.30;94219.28;5087553;28;20039;-78
2024/03/24 06:42:04;;;;;;;17.38;8.43;;;;;;;10.00;48.00;94211.88;5085831;28;20016;-80
2024/03/24 06:44:37;;;;;;;16.20;9.43;;;;;;;10.08;47.94;94207.63;5087947;28;20477;-81
2024/03/24 06:47:03;;;;;;;18.00;9.52;;;;;;;10.17;47.93;94210.41;5085934;28;20032;-81
2024/03/24 06:49:28;;;;;;;18.42;10.88;;;;;;;10.25;47.85;94199.94;5085907;28;20024;-78
2024/03/24 06:51:53;;;;;;;18.95;11.45;;;;;;;10.40;47.93;94202.91;5085644;28;20028;-79
2024/03/24 06:54:19;;;;;;;22.13;11.27;;;;;;;10.49;47.72;94192.69;5086756;28;20040;-80
2024/03/24 06:56:45;;;;;;;21.13;10.90;;;;;;;10.68;47.35;94204.50;5087265;28;20103;-79
2024/03/24 06:59:11;;;;;;;18.67;9.68;;;;;;;10.74;47.29;94199.16;5084330;28;20020;-78
2024/03/24 07:01:37;;;;;;;14.23;8.35;;;;;;;10.86;47.39;94190.78;5086237;28;20028;-79
2024/03/24 07:04:03;;;;;;;15.82;7.53;;;;;;;10.98;47.41;94186.34;5086707;28;20032;-79
2024/03/24 07:06:28;;;;;;;15.77;8.45;;;;;;;11.12;47.11;94201.47;5085757;28;20024;-80
2024/03/24 07:08:54;;;;;;;13.43;7.78;;;;;;;11.21;47.13;94184.22;5085483;28;20560;-79
2024/03/24 07:11:19;;;;;;;12.77;8.48;;;;;;;11.35;46.90;94187.09;5068176;28;20024;-80
2024/03/24 07:13:44;;;;;;;14.32;8.57;;;;;;;11.36;46.86;94176.88;5085256;28;20020;-80
2024/03/24 07:16:10;;;;;;;15.05;8.27;;;;;;;11.57;46.86;94192.44;5086848;28;20107;-80
2024/03/24 07:18:35;;;;;;;13.15;8.93;;;;;;;11.79;44.98;94194.25;5095762;28;20028;-80
2024/03/24 07:21:02;;;;;;;16.83;9.43;;;;;;;11.88;44.28;94183.25;5086906;28;20019;-80
2024/03/24 07:23:28;;;;;;;12.15;8.63;;;;;;;12.04;43.77;94179.34;5085701;28;20090;-80
2024/03/24 07:25:53;;;;;;;13.00;8.20;;;;;;;12.16;43.65;94176.41;5084837;28;20028;-79
2024/03/24 07:28:18;;;;;;;13.32;8.20;;;;;;;12.21;43.69;94158.47;5086595;28;20089;-80
2024/03/24 07:30:44;;;;;;;15.65;8.45;;;;;;;12.38;43.61;94158.84;5084801;28;20034;-80
2024/03/24 07:33:11;;;;;;;14.40;7.97;;;;;;;12.48;43.31;94152.81;5085169;28;20020;-80
2024/03/24 07:35:36;;;;;;;13.48;8.35;;;;;;;12.59;42.68;94159.81;5085168;28;20032;-79
2024/03/24 07:38:02;;;;;;;11.32;7.63;;;;;;;12.68;42.95;94155.03;5084857;28;20448;-78
2024/03/24 07:40:27;;;;;;;13.13;8.25;;;;;;;12.84;42.58;94156.56;5068604;28;20028;-79
2024/03/24 07:42:52;;;;;;;12.38;7.68;;;;;;;13.01;42.07;94159.69;5086118;28;20032;-79
2024/03/24 07:45:18;;;;;;;11.00;7.63;;;;;;;13.09;41.76;94149.81;5086621;28;20028;-79
2024/03/24 07:47:43;;;;;;;11.30;7.20;;;;;;;13.21;41.52;94156.34;5084363;28;20579;-78
2024/03/24 07:50:09;;;;;;;11.57;7.63;;;;;;;13.33;41.63;94162.84;5086060;28;20111;-78
2024/03/24 07:52:34;;;;;;;13.45;8.45;;;;;;;13.49;41.41;94165.16;5084868;28;20498;-78
2024/03/24 07:55:00;;;;;;;12.18;7.55;;;;;;;13.62;41.49;94159.34;5084416;28;20124;-78
2024/03/24 07:57:25;;;;;;;13.73;8.00;;;;;;;13.80;41.10;94165.44;5086225;28;20085;-79
2024/03/24 07:59:52;;;;;;;14.80;7.68;;;;;;;13.93;40.80;94150.59;5085754;28;20107;-80
2024/03/24 08:02:18;;;;;;;12.52;7.85;;;;;;;14.08;40.03;94157.63;5086808;28;20333;-79
2024/03/24 08:04:44;;;;;;;13.32;7.65;;;;;;;14.26;40.05;94147.59;5084115;28;20034;-79
2024/03/24 08:07:09;;;;;;;12.55;8.48;;;;;;;14.47;39.48;94140.91;5084586;28;20048;-79
2024/03/24 08:09:34;;;;;;;16.40;8.23;;;;;;;14.64;39.32;94135.59;5084225;28;20023;-80
2024/03/24 08:12:00;;;;;;;12.75;7.05;;;;;;;14.78;39.25;94122.94;5083911;28;20028;-85
2024/03/24 08:14:25;;;;;;;12.30;7.68;;;;;;;14.98;38.60;94138.81;5086168;28;20028;-83
2024/03/24 08:16:57;;;;;;;11.18;6.80;;;;;;;15.14;37.90;94127.16;5084275;28;20032;-84
2024/03/24 08:19:23;;;;;;;11.70;7.55;;;;;;;15.30;37.68;94123.03;5069236;28;20077;-84
2024/03/24 08:21:50;;;;;;;12.13;7.40;;;;;;;15.57;37.29;94127.34;5066925;28;20100;-73
2024/03/24 08:24:17;;;;;;;10.05;6.82;;;;;;;15.71;36.82;94120.97;5084424;28;20052;-77
2024/03/24 08:26:44;;;;;;;14.27;8.10;;;;;;;15.85;35.93;94113.78;5067062;28;20044;-76
2024/03/24 08:29:10;;;;;;;10.82;7.38;;;;;;;16.04;35.98;94128.06;5084666;28;20370;-76
2024/03/24 08:31:35;;;;;;;8.40;5.78;;;;;;;16.28;34.32;94100.75;5083877;28;20030;-76
2024/03/24 08:34:00;;;;;;;5.25;3.67;;;;;;;16.47;32.50;94101.13;5085238;28;20020;-76
2024/03/24 08:36:26;;;;;;;8.20;3.60;;;;;;;16.56;32.57;94097.38;5083950;28;20482;-79
2024/03/24 08:38:52;;;;;;;4.13;3.65;;;;;;;16.78;32.75;94088.47;5083438;28;20102;-77
2024/03/24 08:41:17;;;;;;;6.70;3.70;;;;;;;17.08;31.77;94084.03;5084238;28;20028;-80
2024/03/24 08:43:43;;;;;;;5.25;3.58;;;;;;;17.35;31.44;94084.63;5084795;28;20103;-80
2024/03/24 08:46:08;;;;;;;4.82;3.13;;;;;;;17.58;31.16;94082.63;5084944;28;20032;-78
2024/03/24 08:48:34;;;;;;;5.18;3.90;;;;;;;17.94;30.38;94076.09;5083400;28;20119;-81
2024/03/24 08:50:59;;;;;;;6.03;3.60;;;;;;;18.21;30.25;94091.28;5085226;28;20031;-83
2024/03/24 08:53:24;;;;;;;4.50;3.38;;;;;;;18.46;28.98;94074.78;5084813;28;20043;-74
2024/03/24 08:55:50;;;;;;;3.80;3.05;;;;;;;18.51;29.14;94066.44;5083083;28;20031;-76
2024/03/24 08:58:16;;;;;;;5.65;3.13;;;;;;;18.76;28.41;94058.31;5084298;28;20120;-75
2024/03/24 09:00:41;;;;;;;5.25;3.20;;;;;;;18.97;28.56;94056.69;5082446;28;20031;-78
2024/03/24 09:03:07;;;;;;;4.78;2.97;;;;;;;19.29;27.96;94064.66;5085065;28;20434;-78
2024/03/24 09:05:32;;;;;;;4.60;3.05;;;;;;;19.47;27.53;94068.84;5082914;28;20069;-77
2024/03/24 09:07:58;;;;;;;6.93;3.28;;;;;;;19.68;27.31;94060.91;5083005;28;20057;-79
2024/03/24 09:10:23;;;;;;;4.20;2.88;;;;;;;19.68;27.04;94058.88;5083283;28;20054;-77
2024/03/24 09:12:50;;;;;;;6.03;3.50;;;;;;;20.04;27.32;94075.56;5082444;28;20458;-78
2024/03/24 09:15:18;;;;;;;4.93;3.30;;;;;;;20.28;26.14;94058.13;5083735;28;20442;-82
2024/03/24 09:17:43;;;;;;;6.97;3.30;;;;;;;20.43;26.07;94052.91;5082443;28;20067;-76
2024/03/24 09:20:09;;;;;;;5.78;3.35;;;;;;;20.29;25.97;94056.81;5066842;28;20060;-76
2024/03/24 09:22:34;;;;;;;10.55;3.38;;;;;;;20.48;25.38;94049.31;5083383;28;20039;-76
2024/03/24 09:25:00;;;;;;;5.25;3.60;;;;;;;20.77;26.09;94041.41;5083143;28;20059;-77
2024/03/24 09:27:25;;;;;;;6.25;3.70;;;;;;;21.08;25.54;94040.00;5084476;28;20414;-77
2024/03/24 09:29:51;;;;;;;9.68;3.67;;;;;;;21.43;25.19;94034.22;5084342;28;20112;-78
2024/03/24 09:32:17;;;;;;;7.30;3.55;;;;;;;21.76;24.87;94046.19;5084661;28;20039;-78
2024/03/24 09:34:42;;;;;;;5.55;3.08;;;;;;;21.80;24.28;94046.66;5082275;28;20020;-77
2024/03/24 09:37:08;;;;;;;7.45;3.42;;;;;;;21.92;24.00;94036.78;5085200;28;20494;-78
2024/03/24 09:39:33;;;;;;;4.15;3.15;;;;;;;22.18;24.18;94036.13;5083699;28;20036;-78
2024/03/24 09:41:59;;;;;;;6.53;3.10;;;;;;;22.38;23.68;94020.78;5086888;28;20127;-78
2024/03/24 09:44:25;;;;;;;7.55;3.83;;;;;;;22.68;23.58;94022.50;5084371;28;20028;-78
2024/03/24 09:46:50;;;;;;;10.93;5.05;;;;;;;23.07;23.26;94015.41;5083077;28;20024;-79
2024/03/24 09:49:15;;;;;;;5.90;4.13;;;;;;;23.34;23.10;94011.25;5083570;28;20020;-79
2024/03/24 09:51:42;;;;;;;5.53;3.28;;;;;;;23.48;22.44;94004.28;5082602;28;20077;-77
2024/03/24 09:54:12;;;;;;;5.95;3.15;;;;;;;23.41;22.60;94004.97;5085264;28;20335;-77
2024/03/24 09:56:38;;;;;;;7.22;3.28;;;;;;;23.86;22.38;94003.97;5083638;28;20028;-77
2024/03/24 09:59:04;;;;;;;5.85;3.25;;;;;;;24.28;21.52;93992.72;5083710;28;20373;-78
2024/03/24 10:01:31;;;;;;;7.30;4.18;;;;;;;24.64;20.80;93993.53;5082964;28;20043;-77
2024/03/24 10:03:56;;;;;;;6.07;4.05;;;;;;;25.01;20.62;93991.50;5082859;28;20036;-78
2024/03/24 10:06:24;;;;;;;5.13;3.00;;;;;;;25.40;19.76;93993.19;5065676;28;20089;-78
2024/03/24 10:08:50;;;;;;;5.45;3.10;;;;;;;25.82;18.86;93978.13;5082429;28;20032;-78
2024/03/24 10:11:30;;;;;;;9.63;6.10;;;;;;;26.50;18.52;93990.75;5082786;28;20562;-78
2024/03/24 10:13:58;;;;;;;4.72;2.97;;;;;;;26.97;17.72;93987.28;5083743;28;20028;-78
2024/03/24 10:16:24;;;;;;;4.95;2.97;;;;;;;27.05;17.92;93984.41;5083060;28;20078;-79
2024/03/24 10:18:50;;;;;;;4.15;2.95;;;;;;;27.25;17.87;93974.97;5100909;28;20035;-78
2024/03/24 10:21:17;;;;;;;4.97;3.10;;;;;;;28.40;16.98;93972.22;5097706;28;20040;-78
2024/03/24 10:23:43;;;;;;;5.28;3.10;;;;;;;28.95;16.17;93964.72;5087021;28;20498;-78
2024/03/24 10:26:08;;;;;;;6.55;2.78;;;;;;;29.30;15.99;93963.38;5082265;28;20028;-79
2024/03/24 10:28:34;;;;;;;6.28;3.17;;;;;;;29.80;15.49;93960.28;5082653;28;20483;-77
2024/03/24 10:31:05;;;;;;;9.05;3.35;;;;;;;30.75;15.02;93959.78;5083841;28;20028;-75
2024/03/24 10:33:35;;;;;;;6.43;3.65;;;;;;;31.55;14.79;93966.38;5086049;28;20024;-80
2024/03/24 10:36:01;;;;;;;4.93;2.72;;;;;;;32.37;14.00;93950.91;5085978;28;20093;-77
2024/03/24 10:38:27;;;;;;;3.97;2.88;;;;;;;32.41;13.54;93956.88;5069331;28;20024;-79
2024/03/24 10:40:57;;;;;;;5.97;2.70;;;;;;;32.59;13.13;93951.69;5085809;28;20111;-81
2024/03/24 10:43:26;;;;;;;5.70;2.85;;;;;;;33.30;12.84;93952.84;5069050;28;20131;-79
2024/03/24 10:45:52;;;;;;;6.85;3.40;;;;;;;33.52;12.52;93936.50;5086133;28;20489;-80
2024/03/24 10:48:31;;;;;;;4.50;2.78;;;;;;;33.66;12.01;93939.50;5085521;28;20395;-80
2024/03/24 10:50:58;;;;;;;4.10;2.80;;;;;;;33.29;12.44;93939.97;5086039;28;20406;-78
2024/03/24 10:53:26;;;;;;;6.97;3.10;;;;;;;33.63;12.29;93937.88;5085890;28;20101;-80
2024/03/24 10:55:55;;;;;;;6.47;2.47;;;;;;;33.45;11.86;93931.78;5068559;28;20035;-79
2024/03/24 10:58:21;;;;;;;3.47;2.47;;;;;;;32.72;12.80;93931.25;5093616;28;20056;-77
2024/03/24 11:00:48;;;;;;;4.63;2.58;;;;;;;32.56;13.00;93950.06;5086586;28;20020;-74
2024/03/24 11:03:19;;;;;;;3.47;2.38;;;;;;;32.12;13.18;93919.28;5069519;28;20024;-74
2024/03/24 11:05:51;;;;;;;3.70;2.33;;;;;;;31.24;13.91;93920.81;5086310;28;20021;-77
2024/03/24 11:08:20;;;;;;;4.80;3.00;;;;;;;30.67;13.92;93918.06;5085289;28;20127;-78
2024/03/24 11:10:50;;;;;;;3.70;2.80;;;;;;;28.77;15.47;93902.50;5068079;28;20020;-75
2024/03/24 11:13:27;;;;;;;5.53;3.13;;;;;;;27.87;16.16;93905.59;5084585;28;20024;-77
2024/03/24 11:15:52;;;;;;;4.22;3.05;;;;;;;26.93;16.73;93905.13;5084704;28;20103;-78
2024/03/24 11:18:25;;;;;;;5.93;3.05;;;;;;;26.00;17.80;93898.19;5084622;28;20123;-79
2024/03/24 11:20:55;;;;;;;4.35;3.22;;;;;;;25.64;18.23;93893.47;5085597;28;20090;-78
2024/03/24 11:23:25;;;;;;;5.63;3.28;;;;;;;25.04;18.79;93874.38;5066259;28;20526;-77
2024/03/24 11:25:51;;;;;;;5.45;3.10;;;;;;;24.81;19.32;93883.47;5066739;28;20036;-78